Date,TemperatureHighF,TemperatureAvgF,TemperatureLowF,DewpointHighF,DewpointAvgF,DewpointLowF,HumidityHigh,HumidityAvg,HumidityLow,PressureMaxIn,PressureMinIn,WindSpeedMaxMPH,WindSpeedAvgMPH,GustSpeedMaxMPH,PrecipitationSumIn
2013-1-1,17.0,10.3,3.0,9.0,1.0,-4.0,84,67,42,0.00,40.00,7,4,16,0.00
2013-1-2,22.0,16.6,13.0,13.0,11.0,9.0,87,78,67,0.00,40.00,6,3,14,0.00
2013-1-3,24.0,18.3,15.0,17.0,11.8,6.0,87,75,60,0.00,40.00,10,5,27,0.00
2013-1-4,37.0,22.5,12.0,21.0,12.2,6.0,81,66,43,0.00,40.00,9,6,21,0.04
2013-1-5,35.0,23.3,16.0,19.0,15.6,11.0,89,74,46,0.00,40.00,6,2,14,0.04
2013-1-6,26.0,22.1,12.0,23.0,17.8,9.0,89,83,72,0.00,40.00,7,4,14,0.01
2013-1-7,37.0,26.3,15.0,21.0,15.6,5.0,84,64,51,0.00,40.00,11,7,29,0.03
2013-1-8,43.0,28.7,12.0,27.0,19.5,9.0,90,71,39,0.00,40.00,8,4,18,0.06
2013-1-9,33.0,30.3,20.0,27.0,21.0,13.0,81,69,56,0.00,40.00,12,7,29,0.01
2013-1-10,44.0,30.8,13.0,31.0,14.5,8.0,92,56,25,0.00,40.00,9,4,21,0.09
2013-1-11,40.0,36.4,33.0,38.0,35.0,31.0,98,95,91,0.00,40.00,9,4,21,0.10
2013-1-12,43.0,29.4,15.0,42.0,23.6,7.0,98,79,68,0.00,40.00,12,7,27,0.04
2013-1-13,15.0,12.5,7.0,7.0,3.5,0.0,74,67,54,0.00,40.00,6,5,12,0.02
2013-1-14,17.0,8.3,4.0,2.0,-0.5,-4.0,78,67,49,0.00,40.00,7,5,14,0.00
2013-1-15,26.0,14.2,0.0,12.0,3.3,-5.0,79,63,37,0.00,40.00,9,5,21,0.00
2013-1-16,27.0,21.0,9.0,22.0,12.6,0.0,88,70,53,0.00,40.00,12,8,26,0.00
2013-1-17,9.0,4.2,-1.0,1.0,-5.4,-8.0,77,64,49,0.00,40.00,8,5,18,0.00
2013-1-18,19.0,10.3,-3.0,16.0,5.0,-9.0,88,79,69,0.00,40.00,4,3,11,0.00
2013-1-19,34.0,20.8,5.0,29.0,16.8,-2.0,91,84,70,0.00,40.00,12,6,31,0.11
2013-1-20,7.0,1.6,-5.0,-1.0,-6.7,-13.0,76,68,57,0.00,40.00,12,6,23,0.03
2013-1-21,-5.0,-10.1,-13.0,-13.0,-20.8,-25.0,67,59,45,0.00,40.00,8,6,18,0.00
2013-1-22,0.0,-9.5,-17.0,-13.0,-19.7,-26.0,67,60,50,0.00,40.00,6,4,14,0.00
2013-1-23,9.0,-2.7,-13.0,0.0,-11.0,-21.0,76,67,54,0.00,40.00,9,4,22,0.00
2013-1-24,10.0,-1.6,-16.0,-1.0,-10.6,-24.0,75,65,53,0.00,40.00,4,1,10,0.00
2013-1-25,17.0,11.0,5.0,8.0,4.5,-1.0,82,75,57,0.00,40.00,5,4,17,0.00
2013-1-26,22.0,15.6,10.0,11.0,8.3,5.0,83,73,58,0.00,40.00,5,3,13,0.00
2013-1-27,33.0,24.7,17.0,25.0,15.9,8.0,91,70,50,0.00,40.00,6,4,16,0.04
2013-1-28,36.0,29.2,26.0,29.0,26.5,24.0,95,89,74,0.00,40.00,5,2,12,0.18
2013-1-29,35.0,31.9,29.0,34.0,29.8,27.0,96,92,88,0.00,40.00,8,5,16,0.23
2013-1-30,29.0,18.4,10.0,27.0,14.3,5.0,92,83,79,0.00,40.00,10,8,23,0.01
2013-1-31,11.0,7.0,3.0,4.0,0.4,-3.0,80,74,64,0.00,40.00,11,6,21,0.00
2013-2-1,3.0,-2.8,-10.0,-3.0,-11.5,-18.0,77,66,51,0.00,40.00,5,3,13,0.00
2013-2-2,15.0,-0.1,-18.0,0.0,-8.7,-26.0,77,66,51,0.00,40.00,4,2,8,0.01
2013-2-3,10.0,4.4,0.0,1.0,-3.7,-7.0,75,68,55,0.00,40.00,10,5,20,0.01
2013-2-4,16.0,-2.3,-17.0,-1.0,-11.8,-25.0,75,64,39,0.00,40.00,5,2,12,0.00
2013-2-5,20.0,10.8,-6.0,13.0,0.5,-99.9,84,74,66,0.00,40.00,10,4,18,0.00
2013-2-6,22.0,9.5,-9.0,15.0,3.3,-16.0,89,76,54,0.00,40.00,4,2,9,0.00
2013-2-7,22.0,18.7,15.0,19.0,15.3,11.0,90,87,82,0.00,40.00,9,5,16,0.00
2013-2-8,26.0,11.7,-7.0,10.0,3.6,-13.0,84,71,48,0.00,40.00,7,3,12,0.11
2013-2-9,33.0,17.8,-5.0,18.0,10.1,-11.0,88,73,53,0.00,40.00,7,4,19,0.04
2013-2-10,32.0,25.6,19.0,31.0,23.6,17.0,96,92,87,0.00,40.00,8,4,20,0.01
2013-2-11,32.0,26.6,20.0,31.0,24.1,16.0,97,91,82,0.00,40.00,12,5,24,0.00
2013-2-12,24.0,19.8,17.0,18.0,15.0,13.0,90,81,70,0.00,40.00,8,4,16,0.00
2013-2-13,43.0,27.7,19.0,27.0,21.7,16.0,90,79,49,0.00,40.00,6,3,11,0.28
2013-2-14,27.0,22.4,15.0,25.0,17.4,4.0,91,81,65,0.00,40.00,9,6,17,0.01
2013-2-15,17.0,10.7,0.0,9.0,3.3,-6.0,83,72,50,0.00,40.00,10,4,19,0.00
2013-2-16,15.0,3.6,-16.0,2.0,-5.0,-23.0,79,68,45,0.00,40.00,7,2,14,0.00
2013-2-17,25.0,10.9,-26.0,5.0,-4.5,-35.0,67,50,37,0.00,40.00,6,4,17,0.01
2013-2-18,35.0,26.8,17.0,28.0,18.5,6.0,93,72,58,0.00,40.00,7,4,16,0.13
2013-2-19,26.0,12.2,7.0,24.0,6.6,-1.0,91,78,65,0.00,40.00,13,11,26,0.01
2013-2-20,15.0,7.4,-8.0,6.0,0.9,-15.0,79,75,66,0.00,40.00,11,7,23,0.00
2013-2-21,25.0,14.1,-9.0,17.0,8.8,-15.0,90,79,63,0.00,40.00,8,5,17,0.08
2013-2-22,25.0,20.8,17.0,21.0,17.6,15.0,91,87,80,0.00,40.00,8,5,14,0.02
2013-2-23,30.0,21.8,13.0,25.0,17.9,10.0,89,85,74,0.00,40.00,6,2,12,0.10
2013-2-24,34.0,25.9,21.0,22.0,19.6,18.0,90,78,56,0.00,40.00,4,2,8,0.08
2013-2-25,38.0,28.2,21.0,25.0,21.8,18.0,89,78,53,0.00,40.00,6,2,11,0.05
2013-2-26,39.0,27.8,11.0,25.0,20.8,7.0,92,76,49,0.00,40.00,10,5,19,0.05
2013-2-27,30.0,28.1,26.0,25.0,23.1,22.0,87,81,72,0.00,40.00,14,10,28,0.01
2013-2-28,27.0,22.9,17.0,23.0,16.6,10.0,88,77,64,0.00,40.00,13,9,23,0.00
2013-3-1,26.0,17.7,5.0,11.0,7.7,-3.0,81,66,42,0.00,40.00,10,7,18,0.00
2013-3-2,27.0,9.7,-5.0,9.0,-0.1,-11.0,81,66,41,0.00,40.00,10,3,14,0.00
2013-3-3,34.0,8.1,-17.0,10.0,-4.7,-25.0,78,59,26,0.00,40.00,6,2,11,0.00
2013-3-4,35.0,15.3,-10.0,13.0,0.3,-17.0,78,55,28,0.00,40.00,7,3,14,0.00
2013-3-5,29.0,21.9,19.0,18.0,14.0,8.0,88,72,49,0.00,40.00,10,6,17,0.00
2013-3-6,27.0,20.6,8.0,20.0,15.6,4.0,92,81,59,0.00,40.00,7,4,13,0.03
2013-3-7,39.0,20.5,7.0,16.0,11.9,3.0,88,72,39,0.00,40.00,5,2,10,0.01
2013-3-8,45.0,26.5,7.0,21.0,13.8,3.0,84,62,34,0.00,40.00,8,4,17,0.00
2013-3-9,36.0,31.7,28.0,32.0,26.0,18.0,95,80,57,0.00,40.00,7,5,16,0.26
2013-3-10,33.0,31.1,27.0,32.0,28.0,23.0,97,88,79,0.00,40.00,10,6,21,0.21
2013-3-11,27.0,24.2,18.0,26.0,21.6,15.0,94,90,84,0.00,40.00,10,8,19,0.01
2013-3-12,22.0,18.1,16.0,16.0,13.8,10.0,87,83,73,0.00,40.00,10,6,18,0.00
2013-3-13,31.0,18.5,6.0,13.0,7.6,-1.0,86,65,37,0.00,40.00,10,6,20,0.21
2013-3-14,41.0,18.2,-9.0,24.0,6.2,-16.0,81,62,34,0.00,40.00,7,3,16,0.03
2013-3-15,31.0,25.1,11.0,26.0,15.0,3.0,83,67,45,0.00,40.00,8,6,15,0.01
2013-3-16,24.0,15.2,6.0,11.0,6.4,1.0,82,69,52,0.00,40.00,8,4,18,0.08
2013-3-17,31.0,12.5,-13.0,5.0,-4.6,-20.0,76,50,22,0.00,40.00,6,4,17,0.01
2013-3-18,32.0,23.1,16.0,25.0,16.8,6.0,92,77,58,0.00,40.00,8,5,19,0.00
2013-3-19,25.0,18.5,14.0,15.0,9.9,6.0,84,70,49,0.00,40.00,11,7,26,0.00
2013-3-20,19.0,13.6,6.0,11.0,6.8,0.0,84,74,58,0.00,40.00,9,6,18,0.00
2013-3-21,24.0,16.8,1.0,12.0,9.9,-6.0,84,75,59,0.00,40.00,7,5,14,0.00
2013-3-22,32.0,17.8,-7.0,20.0,10.8,-14.0,84,74,60,0.00,40.00,6,2,13,0.10
2013-3-23,31.0,25.7,22.0,21.0,18.1,16.0,81,73,62,0.00,40.00,6,4,11,0.06
2013-3-24,32.0,25.1,18.0,22.0,17.8,10.0,87,74,61,0.00,40.00,10,6,18,0.01
2013-3-25,32.0,21.7,8.0,23.0,15.8,4.0,93,79,61,0.00,40.00,10,4,20,0.00
2013-3-26,37.0,28.8,20.0,26.0,21.2,17.0,90,75,51,0.00,40.00,8,4,16,0.00
2013-3-27,43.0,30.1,17.0,22.0,17.3,14.0,89,64,35,0.00,40.00,9,3,19,0.00
2013-3-28,49.0,38.7,23.0,19.0,17.3,15.0,81,46,27,0.00,40.00,6,3,12,0.00
2013-3-29,54.0,32.0,8.0,22.0,14.0,4.0,87,56,20,0.00,40.00,5,2,12,0.00
2013-3-30,38.0,34.2,26.0,36.0,28.4,-99.9,97,85,54,0.00,40.00,7,4,15,0.35
2013-3-31,37.0,31.1,22.0,34.0,22.6,7.0,98,72,44,0.00,40.00,15,7,32,0.01
2013-4-1,27.0,21.0,16.0,16.0,8.0,2.0,87,59,35,0.00,40.00,12,7,26,0.01
2013-4-2,33.0,19.8,2.0,14.0,3.7,-3.0,83,54,27,0.00,40.00,10,5,21,0.01
2013-4-3,45.0,23.8,-3.0,9.0,1.7,-9.0,80,46,14,0.00,40.00,8,3,20,0.00
2013-4-4,46.0,38.0,28.0,27.0,20.2,12.0,66,49,33,0.00,40.00,12,7,23,0.00
2013-4-5,44.0,30.1,14.0,19.0,12.1,5.0,88,52,23,0.00,40.00,6,2,9,0.00
2013-4-6,38.0,32.8,28.0,34.0,27.5,11.0,97,82,39,0.00,40.00,8,4,24,0.34
2013-4-7,38.0,32.5,29.0,31.0,29.0,27.0,97,87,71,0.00,40.00,10,4,18,0.24
2013-4-8,38.0,34.4,31.0,36.0,32.2,27.0,98,92,86,0.00,40.00,3,2,8,0.74
2013-4-9,37.0,33.2,28.0,34.0,27.7,15.0,99,82,45,0.00,40.00,10,5,18,0.04
2013-4-10,42.0,33.4,26.0,21.0,15.5,10.0,76,50,33,0.00,40.00,11,7,19,0.00
2013-4-11,34.0,29.7,25.0,22.0,16.6,12.0,90,59,41,0.00,40.00,11,9,25,0.00
2013-4-12,32.0,27.5,25.0,27.0,24.0,22.0,93,87,73,0.00,40.00,8,6,17,0.26
2013-4-13,37.0,27.8,18.0,25.0,21.5,16.0,93,78,54,0.00,40.00,8,4,16,0.13
2013-4-14,44.0,29.0,11.0,30.0,21.0,8.0,93,75,41,0.00,40.00,7,4,21,0.14
2013-4-15,47.0,37.3,32.0,36.0,29.3,23.0,97,75,43,0.00,40.00,11,6,34,0.89
2013-4-16,45.0,36.8,27.0,31.0,25.1,21.0,84,64,40,0.00,40.00,8,5,16,0.03
2013-4-17,43.0,33.2,21.0,28.0,24.2,19.0,92,71,51,0.00,40.00,6,3,12,0.00
2013-4-18,33.0,32.3,31.0,32.0,30.7,29.0,97,94,90,0.00,40.00,9,6,18,0.42
2013-4-19,31.0,25.3,20.0,30.0,22.2,16.0,96,88,76,0.00,40.00,13,8,27,0.21
2013-4-20,34.0,22.4,10.0,19.0,14.5,6.0,89,74,46,0.00,40.00,9,4,17,0.26
2013-4-21,43.0,28.2,10.0,29.0,19.8,6.0,87,72,55,0.00,40.00,9,4,24,0.01
2013-4-22,44.0,36.1,31.0,37.0,33.5,29.0,98,90,67,0.00,40.00,6,3,17,0.16
2013-4-23,33.0,30.2,19.0,30.0,26.8,13.0,96,87,68,0.00,40.00,9,6,22,0.37
2013-4-24,48.0,31.4,7.0,27.0,16.7,3.0,89,59,33,0.00,40.00,8,3,19,0.15
2013-4-25,52.0,39.3,31.0,31.0,23.5,15.0,93,59,25,0.00,40.00,8,5,18,0.01
2013-4-26,64.0,44.3,27.0,35.0,30.4,22.0,93,62,32,0.00,40.00,10,4,19,0.10
2013-4-27,72.0,49.4,27.0,39.0,32.2,26.0,96,60,24,0.00,40.00,6,2,13,0.01
2013-4-28,70.0,53.4,39.0,43.0,38.8,35.0,95,62,32,0.00,40.00,9,4,20,0.01
2013-4-29,70.0,55.3,38.0,54.0,45.4,38.0,100,75,40,0.00,40.00,4,2,13,0.30
2013-4-30,80.0,61.2,45.0,56.0,49.5,42.0,100,72,29,0.00,40.00,10,4,27,0.04
2013-5-1,48.0,41.7,32.0,45.0,37.7,29.0,99,86,72,0.00,40.00,7,4,14,0.07
2013-5-2,32.0,29.9,28.0,31.0,27.9,25.0,96,93,88,0.00,40.00,9,7,18,0.03
2013-5-3,33.0,29.7,27.0,30.0,27.5,25.0,96,92,86,0.00,40.00,9,7,15,0.03
2013-5-4,52.0,37.2,30.0,44.0,34.7,29.0,98,92,73,0.00,40.00,7,4,12,0.42
2013-5-5,65.0,44.5,32.0,44.0,37.2,32.0,100,79,47,0.00,40.00,8,4,16,0.09
2013-5-6,74.0,52.6,29.0,42.0,36.0,28.0,97,62,22,0.00,40.00,8,3,15,0.00
2013-5-7,79.0,56.4,35.0,43.0,36.5,30.0,96,58,18,0.00,40.00,5,2,15,0.00
2013-5-8,79.0,61.6,42.0,41.0,38.2,33.0,89,50,19,0.00,40.00,7,3,15,0.00
2013-5-9,50.0,41.4,34.0,42.0,36.9,29.0,93,84,68,0.00,40.00,10,5,17,0.33
2013-5-10,58.0,42.2,30.0,29.0,22.8,-99.9,89,56,22,0.00,40.00,8,5,16,0.07
2013-5-11,43.0,36.6,31.0,35.0,27.2,-99.9,95,73,50,0.00,40.00,13,8,28,0.05
2013-5-12,42.0,33.4,27.0,29.0,23.0,16.0,94,69,36,0.00,40.00,12,8,24,0.12
2013-5-13,57.0,41.9,21.0,29.0,20.8,16.0,91,51,20,0.00,40.00,6,3,15,0.02
2013-5-14,77.0,59.0,43.0,47.0,38.1,28.0,68,47,30,0.00,40.00,8,4,21,0.00
2013-5-15,73.0,64.0,54.0,47.0,38.3,33.0,66,41,24,0.00,40.00,13,8,29,0.00
2013-5-16,67.0,53.2,38.0,39.0,19.7,-99.9,91,47,20,0.00,40.00,8,4,18,0.00
2013-5-17,72.0,55.7,39.0,48.0,34.3,-99.9,85,54,26,0.00,40.00,6,2,13,0.00
2013-5-18,71.0,57.8,51.0,58.0,51.4,45.0,98,80,61,0.00,40.00,6,3,13,0.49
2013-5-19,84.0,70.8,59.0,63.0,58.5,56.0,92,68,39,0.00,40.00,7,4,15,0.01
2013-5-20,80.0,68.0,53.0,62.0,55.3,51.0,96,67,36,0.00,40.00,8,5,19,0.07
2013-5-21,73.0,57.5,44.0,61.0,54.0,43.0,100,90,55,0.00,40.00,6,4,13,0.68
2013-5-22,49.0,45.3,42.0,47.0,44.0,38.0,99,95,86,0.00,40.00,9,6,22,0.17
2013-5-23,49.0,40.3,33.0,38.0,31.3,28.0,89,72,46,0.00,40.00,11,8,25,0.08
2013-5-24,66.0,47.3,27.0,34.0,28.9,26.0,95,57,23,0.00,40.00,6,3,12,0.00
2013-5-25,70.0,55.4,36.0,38.0,33.6,30.0,94,48,26,0.00,40.00,6,3,13,0.00
2013-5-26,70.0,54.5,35.0,36.0,31.4,23.0,92,49,17,0.00,40.00,7,3,15,0.00
2013-5-27,72.0,56.5,37.0,37.0,33.4,29.0,87,46,23,0.00,40.00,7,4,16,0.00
2013-5-28,61.0,55.5,50.0,52.0,45.9,38.0,93,71,52,0.00,40.00,5,3,13,0.00
2013-5-29,80.0,63.8,53.0,63.0,54.6,51.0,97,76,37,0.00,40.00,6,3,18,0.22
2013-5-30,83.0,68.4,60.0,66.0,62.9,59.0,99,85,47,0.00,40.00,9,5,20,1.08
2013-5-31,81.0,66.8,55.0,64.0,57.3,52.0,98,75,37,0.00,40.00,9,5,26,0.31
2013-6-1,69.0,54.3,39.0,58.0,50.1,-99.9,98,91,69,0.00,40.00,9,4,18,0.67
2013-6-2,55.0,44.0,36.0,40.0,35.9,31.0,96,77,40,0.00,40.00,10,7,21,0.06
2013-6-3,61.0,47.2,30.0,40.0,32.9,24.0,96,64,27,0.00,40.00,8,3,18,0.01
2013-6-4,62.0,49.9,33.0,45.0,37.4,32.0,95,66,33,0.00,40.00,5,2,11,0.00
2013-6-5,51.0,48.0,44.0,49.0,45.8,40.0,97,92,79,0.00,40.00,5,2,13,0.62
2013-6-6,59.0,51.2,46.0,48.0,45.5,36.0,97,82,43,0.00,40.00,8,3,13,0.60
2013-6-7,70.0,54.7,39.0,49.0,43.5,38.0,98,71,37,0.00,40.00,5,2,13,0.01
2013-6-8,71.0,59.0,48.0,50.0,46.3,44.0,95,67,38,0.00,40.00,6,2,15,0.03
2013-6-9,68.0,56.9,42.0,54.0,49.0,41.0,98,77,56,0.00,40.00,7,3,19,0.01
2013-6-10,76.0,66.2,53.0,61.0,56.1,51.0,95,72,52,0.00,40.00,8,3,14,0.01
2013-6-11,78.0,64.9,49.0,59.0,53.0,40.0,99,70,27,0.00,40.00,8,3,17,0.00
2013-6-12,81.0,63.9,43.0,53.0,46.6,42.0,97,60,29,0.00,40.00,8,3,15,0.00
2013-6-13,67.0,57.8,48.0,51.0,48.8,46.0,96,74,54,0.00,40.00,10,5,21,0.00
2013-6-14,78.0,60.6,38.0,57.0,37.5,-99.9,97,61,25,0.00,40.00,5,2,9,0.00
2013-6-15,66.0,60.8,54.0,63.0,58.3,53.0,99,92,84,0.00,40.00,5,2,11,0.13
2013-6-16,79.0,63.7,52.0,55.0,51.7,44.0,100,71,30,0.00,40.00,10,5,34,0.13
2013-6-17,61.0,54.8,42.0,55.0,51.4,38.0,100,89,63,0.00,40.00,7,3,13,0.12
2013-6-18,73.0,54.1,31.0,43.0,37.6,30.0,97,61,27,0.00,40.00,7,2,12,0.06
2013-6-19,77.0,62.4,44.0,54.0,45.9,40.0,95,60,35,0.00,40.00,7,4,15,0.00
2013-6-20,72.0,62.9,54.0,63.0,56.0,52.0,97,79,61,0.00,40.00,6,3,14,0.61
2013-6-22,73.0,67.5,62.0,65.0,62.8,60.0,95,85,73,0.00,40.00,6,3,18,0.01
2013-6-23,84.0,72.5,62.0,67.0,64.2,62.0,100,78,54,0.00,40.00,9,4,21,0.00
2013-6-24,85.0,73.4,60.0,67.0,61.5,56.0,100,71,42,0.00,40.00,7,3,14,0.00
2013-6-25,89.0,75.5,62.0,67.0,62.0,56.0,100,69,33,0.00,40.00,4,2,8,0.00
2013-6-26,86.0,70.1,59.0,70.0,64.7,59.0,100,86,53,0.00,40.00,7,2,15,0.28
2013-6-27,81.0,69.4,61.0,68.0,62.9,57.0,100,83,45,0.00,40.00,5,3,20,0.24
2013-6-28,71.0,62.3,58.0,62.0,59.8,57.0,100,92,68,0.00,40.00,7,4,13,0.16
2013-6-29,68.0,59.2,49.0,57.0,53.5,46.0,100,84,53,0.00,40.00,9,4,16,0.19
2013-6-30,78.0,60.8,40.0,53.0,45.5,40.0,99,65,28,0.00,40.00,9,3,18,0.02
2013-7-1,76.0,62.0,46.0,55.0,49.1,44.0,99,67,40,0.00,40.00,8,4,14,0.00
2013-7-2,79.0,61.3,40.0,48.0,43.9,38.0,98,60,25,0.00,40.00,7,2,12,0.00
2013-7-3,80.0,64.3,44.0,56.0,47.7,43.0,97,63,28,0.00,40.00,5,2,12,0.00
2013-7-4,83.0,70.8,59.0,60.0,57.3,54.0,91,66,38,0.00,40.00,6,3,15,0.00
2013-7-5,85.0,74.0,59.0,61.0,57.6,55.0,92,60,36,0.00,40.00,8,5,22,0.00
2013-7-6,88.0,75.9,68.0,68.0,61.8,57.0,100,64,42,0.00,40.00,9,5,21,0.15
2013-7-7,86.0,73.7,65.0,71.0,67.7,65.0,100,84,51,0.00,40.00,6,3,12,1.31
2013-7-8,77.0,68.2,63.0,69.0,64.1,-99.9,100,91,72,0.00,40.00,6,3,12,0.75
2013-7-9,79.0,69.6,61.0,73.0,67.2,61.0,100,92,73,0.00,40.00,6,3,15,0.72
2013-7-10,71.0,63.7,54.0,64.0,55.2,50.0,98,76,49,0.00,40.00,10,6,23,0.63
2013-7-11,81.0,64.9,48.0,58.0,52.5,48.0,100,71,34,0.00,40.00,6,2,11,0.00
2013-7-12,83.0,70.3,55.0,62.0,57.5,54.0,97,67,40,0.00,40.00,8,4,19,0.00
2013-7-13,85.0,73.6,65.0,64.0,59.8,56.0,77,63,46,0.00,40.00,7,4,16,0.00
2013-7-14,86.0,75.0,64.0,64.0,61.0,58.0,97,64,42,0.00,40.00,7,4,17,0.00
2013-7-15,88.0,74.3,59.0,70.0,63.7,59.0,100,74,45,0.00,40.00,6,2,14,0.00
2013-7-16,91.0,85.2,72.0,71.0,69.4,68.0,90,61,47,0.00,40.00,9,5,18,0.00
2013-7-17,90.0,79.6,69.0,70.0,68.1,66.0,95,70,47,0.00,40.00,6,3,14,0.00
2013-7-18,90.0,81.1,70.0,74.0,69.4,66.0,98,70,50,0.00,40.00,10,5,22,0.18
2013-7-19,80.0,74.0,59.0,72.0,64.1,54.0,97,73,47,0.00,40.00,11,6,24,0.60
2013-7-20,68.0,61.1,47.0,57.0,48.9,44.0,96,67,43,0.00,40.00,7,4,15,0.44
2013-7-21,71.0,59.1,44.0,57.0,50.3,44.0,100,76,52,0.00,40.00,5,2,13,0.00
2013-7-22,81.0,65.6,56.0,69.0,59.5,53.0,99,83,57,0.00,40.00,9,5,20,0.00
2013-7-23,65.0,57.7,48.0,53.0,47.7,45.0,97,71,48,0.00,40.00,10,6,21,0.00
2013-7-24,70.0,56.8,40.0,56.0,49.0,40.0,100,79,47,0.00,40.00,5,2,10,0.00
2013-7-25,77.0,62.8,51.0,65.0,56.9,51.0,99,83,52,0.00,40.00,7,3,17,0.48
2013-7-26,68.0,56.8,45.0,61.0,54.9,44.0,100,94,73,0.00,40.00,9,5,22,0.49
2013-7-27,54.0,47.8,43.0,49.0,45.9,42.0,98,93,81,0.00,40.00,7,4,16,0.13
2013-7-28,52.0,48.9,46.0,50.0,47.9,45.0,99,97,93,0.00,40.00,11,6,22,0.13
2013-7-29,74.0,58.1,41.0,57.0,49.6,41.0,100,78,45,0.00,40.00,5,2,13,0.02
2013-7-30,71.0,61.4,51.0,61.0,56.9,51.0,100,87,62,0.00,40.00,7,2,14,0.01
2013-7-31,75.0,65.3,55.0,63.0,59.6,51.0,100,83,57,0.00,40.00,8,3,16,0.03
2013-8-1,72.0,60.3,49.0,56.0,51.7,49.0,99,77,46,0.00,40.00,9,3,19,0.03
2013-8-2,70.0,61.4,51.0,56.0,52.4,49.0,99,75,47,0.00,40.00,9,4,20,0.17
2013-8-3,67.0,57.2,44.0,53.0,49.2,44.0,100,78,53,0.00,40.00,10,4,18,0.08
2013-8-4,70.0,56.3,39.0,53.0,45.3,39.0,99,72,39,0.00,40.00,4,1,8,0.00
2013-8-5,64.0,56.4,46.0,63.0,55.3,46.0,100,96,91,0.00,40.00,4,2,10,0.48
2013-8-6,77.0,67.6,61.0,64.0,60.6,57.0,100,81,50,0.00,40.00,6,3,13,0.03
2013-8-7,68.0,60.9,48.0,59.0,53.4,43.0,99,80,40,0.00,40.00,8,4,17,0.02
2013-8-8,70.0,55.8,41.0,58.0,51.0,41.0,100,86,52,0.00,40.00,5,2,14,0.09
2013-8-9,66.0,59.5,50.0,56.0,51.2,46.0,100,77,51,0.00,40.00,9,4,21,0.08
2013-8-10,71.0,58.3,41.0,54.0,48.8,41.0,100,75,47,0.00,40.00,7,2,12,0.00
2013-8-11,72.0,58.9,44.0,57.0,51.0,44.0,100,79,45,0.00,40.00,4,1,9,0.00
2013-8-12,73.0,59.8,44.0,58.0,51.9,41.0,100,78,48,0.00,40.00,10,4,21,0.00
2013-8-13,61.0,50.3,38.0,51.0,43.2,38.0,100,80,49,0.00,40.00,8,3,17,0.00
2013-8-14,68.0,51.1,35.0,49.0,40.7,-99.9,100,78,44,0.00,40.00,6,2,14,0.00
2013-8-15,76.0,50.6,40.0,53.0,31.5,-99.9,100,69,39,0.00,40.00,8,3,17,0.00
2013-8-16,79.0,59.6,41.0,59.0,47.3,-99.9,100,72,32,0.00,40.00,4,1,11,0.00
2013-8-17,80.0,63.4,47.0,60.0,50.9,-99.9,100,71,39,0.00,40.00,7,2,15,0.00
2013-8-18,80.0,64.4,49.0,59.0,54.2,49.0,100,74,41,0.00,40.00,8,3,16,0.00
2013-8-19,82.0,65.2,55.0,65.0,48.9,-99.9,96,76,56,0.00,40.00,7,4,20,0.00
2013-8-20,86.0,72.6,61.0,68.0,62.7,-99.9,98,76,53,0.00,40.00,8,4,20,0.00
2013-8-21,87.0,73.2,60.0,73.0,67.6,60.0,99,84,59,0.00,40.00,8,4,16,1.10
2013-8-22,77.0,63.8,50.0,60.0,53.4,47.0,100,74,39,0.00,40.00,6,2,15,0.02
2013-8-23,79.0,60.9,41.0,61.0,51.4,41.0,99,76,42,0.00,40.00,6,2,13,0.01
2013-8-24,83.0,69.1,58.0,63.0,56.6,-99.9,96,69,51,0.00,40.00,8,5,19,0.01
2013-8-25,93.0,79.7,69.0,72.0,69.5,64.0,93,73,49,0.00,40.00,9,6,19,0.08
2013-8-26,87.0,75.1,65.0,74.0,69.8,65.0,99,85,61,0.00,40.00,7,3,29,0.73
2013-8-27,81.0,71.3,68.0,73.0,69.0,67.0,99,93,73,0.00,40.00,3,1,15,0.63
2013-8-28,86.0,78.0,66.0,69.0,65.6,62.0,97,69,48,0.00,40.00,5,2,8,0.01
2013-8-29,82.0,69.9,61.0,72.0,66.0,61.0,100,89,60,0.00,40.00,6,2,14,0.09
2013-8-30,73.0,67.8,61.0,69.0,64.1,60.0,98,89,71,0.00,40.00,9,5,20,0.25
2013-8-31,82.0,65.8,52.0,65.0,57.5,-99.9,100,80,49,0.00,40.00,5,2,10,0.01
2013-9-1,71.0,65.0,55.0,64.0,61.2,53.0,97,88,71,0.00,40.00,7,5,18,0.12
2013-9-2,57.0,51.7,44.0,53.0,48.9,43.0,98,90,74,0.00,40.00,8,5,16,0.13
2013-9-3,73.0,56.4,38.0,56.0,47.4,38.0,99,76,42,0.00,40.00,6,2,16,0.01
2013-9-4,68.0,59.8,44.0,56.0,50.2,42.0,98,72,48,0.00,40.00,7,4,15,0.00
2013-9-5,73.0,54.6,37.0,54.0,44.8,37.0,99,75,38,0.00,40.00,5,2,10,0.00
2013-9-6,78.0,65.1,53.0,70.0,60.3,50.0,96,85,69,0.00,40.00,6,3,12,0.04
2013-9-7,80.0,67.0,50.0,69.0,60.2,-99.9,98,82,68,0.00,40.00,9,4,18,0.01
2013-9-8,71.0,55.9,39.0,56.0,48.9,39.0,99,80,49,0.00,40.00,4,1,11,0.00
2013-9-9,71.0,63.2,56.0,68.0,61.3,52.0,99,94,80,0.00,40.00,4,2,12,0.11
2013-9-10,76.0,69.0,63.0,68.0,65.0,62.0,100,88,67,0.00,40.00,6,3,14,0.08
2013-9-11,77.0,65.3,52.0,64.0,58.6,51.0,100,81,51,0.00,40.00,10,4,19,0.01
2013-9-12,60.0,53.5,48.0,54.0,48.3,43.0,100,84,54,0.00,40.00,10,5,22,0.01
2013-9-13,61.0,47.7,34.0,46.0,40.8,34.0,98,80,50,0.00,40.00,8,2,13,0.01
2013-9-14,67.0,52.2,37.0,54.0,43.8,-99.9,100,78,51,0.00,40.00,8,2,18,0.00
2013-9-15,56.0,48.6,33.0,53.0,46.6,31.0,98,94,83,0.00,40.00,8,2,14,0.18
2013-9-16,63.0,43.5,28.0,44.0,35.7,27.0,98,78,41,0.00,40.00,4,1,8,0.01
2013-9-17,68.0,51.9,38.0,49.0,42.4,37.0,99,74,43,0.00,40.00,7,4,15,0.00
2013-9-18,65.0,56.9,55.0,63.0,53.8,51.0,95,90,82,0.00,40.00,6,4,19,0.00
2013-9-19,81.0,68.0,63.0,69.0,65.1,62.0,99,91,66,0.00,40.00,7,3,20,0.37
2013-9-20,68.0,60.2,48.0,64.0,57.0,45.0,99,90,63,0.00,40.00,7,4,19,0.27
2013-9-21,48.0,44.1,33.0,47.0,39.3,-99.9,98,87,70,0.00,40.00,7,4,15,0.11
2013-9-22,59.0,47.0,36.0,43.0,39.4,36.0,99,78,48,0.00,40.00,4,2,9,0.02
2013-9-23,67.0,51.7,41.0,50.0,44.3,39.0,96,78,52,0.00,40.00,6,3,14,0.00
2013-9-24,72.0,54.9,45.0,54.0,48.6,44.0,99,83,44,0.00,40.00,4,2,11,0.01
2013-9-25,73.0,55.4,41.0,54.0,47.4,41.0,100,80,36,0.00,40.00,4,1,10,0.01
2013-9-26,73.0,55.4,37.0,53.0,46.7,37.0,100,77,39,0.00,40.00,6,3,16,0.01
2013-9-27,79.0,64.3,52.0,53.0,50.4,46.0,90,64,37,0.00,40.00,9,5,20,0.01
2013-9-28,75.0,61.4,51.0,60.0,49.5,-99.9,95,69,52,0.00,40.00,10,6,30,0.24
2013-9-29,69.0,53.6,38.0,48.0,43.3,37.0,99,74,36,0.00,40.00,6,3,14,0.21
2013-9-30,71.0,58.7,47.0,46.0,44.3,42.0,93,62,37,0.00,40.00,11,6,29,0.00
2013-10-1,66.0,58.8,55.0,36.0,34.4,32.0,47,40,29,0.00,40.00,4,3,9,0.00
2013-10-2,74.0,56.9,40.0,46.0,36.0,27.0,92,52,18,0.00,40.00,5,2,11,0.00
2013-10-3,60.0,53.0,49.0,53.0,49.4,47.0,97,88,71,0.00,40.00,6,3,13,0.64
2013-10-4,59.0,52.8,50.0,52.0,49.5,48.0,98,89,73,0.00,40.00,8,4,15,0.18
2013-10-5,54.0,50.8,49.0,52.0,49.8,48.0,98,96,94,0.00,40.00,8,5,19,1.08
2013-10-6,59.0,52.1,46.0,53.0,50.1,45.0,99,93,67,0.00,40.00,7,3,19,0.55
2013-10-7,55.0,46.0,37.0,45.0,40.4,35.0,98,83,52,0.00,40.00,9,5,19,0.12
2013-10-8,72.0,53.2,35.0,45.0,40.3,34.0,99,67,34,0.00,40.00,8,4,24,0.00
2013-10-9,73.0,60.7,52.0,48.0,46.0,43.0,78,60,38,0.00,40.00,9,4,21,0.00
2013-10-10,72.0,57.0,42.0,47.0,43.8,40.0,98,66,34,0.00,40.00,6,2,14,0.00
2013-10-11,72.0,56.9,41.0,54.0,47.9,40.0,99,75,45,0.00,40.00,8,4,21,0.00
2013-10-12,68.0,58.4,48.0,56.0,44.7,-99.9,78,63,40,0.00,40.00,9,6,19,0.00
2013-10-13,55.0,45.6,30.0,43.0,37.1,28.0,94,74,43,0.00,40.00,7,4,14,0.01
2013-10-14,55.0,40.8,27.0,38.0,31.0,26.0,96,72,41,0.00,40.00,4,2,8,0.01
2013-10-15,51.0,47.8,44.0,50.0,45.5,39.0,99,92,76,0.00,40.00,6,4,15,0.74
2013-10-16,48.0,41.3,31.0,47.0,39.5,29.0,98,94,81,0.00,40.00,9,4,17,0.26
2013-10-17,54.0,38.4,29.0,41.0,34.3,29.0,98,87,55,0.00,40.00,6,1,13,0.01
2013-10-18,42.0,38.5,30.0,41.0,36.8,29.0,99,94,83,0.00,40.00,8,2,16,0.23
2013-10-19,47.0,35.1,29.0,37.0,30.2,-99.9,98,87,53,0.00,40.00,6,2,12,0.08
2013-10-20,42.0,35.5,32.0,34.0,32.5,30.0,98,90,62,0.00,40.00,4,2,11,0.07
2013-10-21,33.0,31.6,29.0,32.0,27.9,23.0,98,86,72,0.00,40.00,7,5,18,0.23
2013-10-22,36.0,32.5,31.0,32.0,30.6,29.0,97,93,81,0.00,40.00,9,5,17,0.21
2013-10-23,34.0,30.7,29.0,30.0,27.7,26.0,94,89,77,0.00,40.00,7,3,13,0.11
2013-10-24,37.0,31.5,29.0,33.0,29.5,28.0,96,92,80,0.00,40.00,6,3,14,0.18
2013-10-25,43.0,34.7,27.0,34.0,29.1,26.0,96,81,61,0.00,40.00,7,4,19,0.02
2013-10-26,42.0,36.4,33.0,37.0,29.0,-99.9,93,78,59,0.00,40.00,10,6,22,0.06
2013-10-27,47.0,37.1,32.0,32.0,29.4,27.0,91,75,48,0.00,40.00,12,5,19,0.01
2013-10-28,36.0,29.1,20.0,29.0,18.5,-99.9,91,69,48,0.00,40.00,9,4,18,0.00
2013-10-29,35.0,27.0,18.0,32.0,22.8,16.0,96,85,55,0.00,40.00,4,1,10,0.02
2013-10-30,48.0,39.8,33.0,47.0,38.8,32.0,99,96,92,0.00,40.00,4,2,11,0.05
2013-10-31,52.0,48.0,43.0,51.0,47.7,41.0,99,98,96,0.00,40.00,7,2,18,0.17
2013-11-1,42.0,39.2,36.0,41.0,37.8,35.0,98,95,89,0.00,40.00,9,5,19,0.16
2013-11-2,40.0,34.8,31.0,35.0,31.4,-99.9,99,91,76,0.00,40.00,5,1,9,0.03
2013-11-3,42.0,35.9,29.0,34.0,31.1,28.0,98,84,62,0.00,40.00,9,3,21,0.01
2013-11-4,47.0,42.6,40.0,42.0,37.1,34.0,96,81,67,0.00,40.00,9,6,23,0.08
2013-11-5,47.0,38.2,28.0,36.0,30.6,26.0,97,77,44,0.00,40.00,7,3,13,0.07
2013-11-6,34.0,31.2,28.0,32.0,29.3,24.0,98,92,85,0.00,40.00,6,4,14,0.10
2013-11-7,32.0,28.5,27.0,27.0,24.9,24.0,90,86,83,0.00,40.00,4,3,10,0.03
2013-11-8,37.0,28.8,19.0,30.0,24.7,17.0,93,85,69,0.00,40.00,6,3,15,0.13
2013-11-9,35.0,31.1,32.0,35.0,21.3,-99.9,99,86,85,0.00,40.00,7,5,18,0.42
2013-11-10,38.0,33.2,30.0,32.0,29.2,27.0,97,85,66,0.00,40.00,8,5,16,0.17
2013-11-11,32.0,22.2,19.0,31.0,17.2,12.0,95,81,64,0.00,40.00,11,7,25,0.02
2013-11-12,28.0,20.2,16.0,14.0,9.0,4.0,84,63,36,0.00,40.00,7,5,14,0.04
2013-11-13,48.0,32.4,17.0,30.0,19.5,7.0,71,59,44,0.00,40.00,11,7,31,0.12
2013-11-14,42.0,36.2,30.0,31.0,29.0,27.0,89,75,63,0.00,40.00,7,3,15,0.05
2013-11-15,50.0,37.3,29.0,36.0,32.2,28.0,98,83,56,0.00,40.00,8,3,15,0.00
2013-11-16,49.0,39.9,37.0,49.0,35.1,-99.9,99,86,77,0.00,40.00,7,4,18,0.82
2013-11-17,49.0,41.8,33.0,49.0,39.8,26.0,99,93,83,0.00,40.00,9,4,27,0.58
2013-11-18,32.0,27.2,25.0,26.0,19.6,14.0,81,72,63,0.00,40.00,12,9,32,0.01
2013-11-19,37.0,27.8,15.0,21.0,16.2,12.0,89,63,45,0.00,40.00,6,4,17,0.00
2013-11-20,37.0,33.8,31.0,31.0,24.1,20.0,96,69,51,0.00,40.00,7,5,20,0.00
2013-11-21,34.0,31.1,24.0,33.0,29.7,21.0,98,95,90,0.00,40.00,9,3,18,0.13
2013-11-22,31.0,23.1,15.0,21.0,15.8,8.0,90,75,49,0.00,40.00,9,6,20,0.03
2013-11-23,14.0,9.1,7.0,9.0,2.1,-99.9,83,76,62,0.00,40.00,11,7,21,0.01
2013-11-24,22.0,12.2,1.0,10.0,2.5,-4.0,81,65,52,0.00,40.00,10,5,32,0.00
2013-11-25,33.0,28.0,22.0,25.0,20.0,11.0,83,72,62,0.00,40.00,9,6,26,0.00
2013-11-26,27.0,16.5,10.0,23.0,10.2,3.0,87,76,62,0.00,40.00,9,6,20,0.00
2013-11-27,23.0,16.0,11.0,13.0,10.5,7.0,89,79,54,0.00,40.00,6,3,11,0.02
2013-11-28,23.0,16.6,6.0,16.0,11.6,2.0,88,80,64,0.00,40.00,5,1,8,0.01
2013-11-29,23.0,17.8,-1.0,17.0,12.6,-6.0,89,80,74,0.00,40.00,7,3,20,0.01
2013-11-30,34.0,27.2,23.0,23.0,18.7,-99.9,86,73,64,0.00,40.00,5,3,16,0.04
2013-12-1,31.0,28.2,27.0,27.0,25.0,23.0,96,88,77,0.00,40.00,4,1,8,0.02
2013-12-2,33.0,29.0,26.0,25.0,22.7,21.0,88,77,67,0.00,40.00,5,2,15,0.01
2013-12-3,29.0,25.9,23.0,25.0,22.2,20.0,93,86,82,0.00,40.00,7,5,18,0.01
2013-12-4,33.0,27.3,23.0,33.0,25.3,20.0,99,92,87,0.00,40.00,7,4,18,0.00
2013-12-5,33.0,14.2,4.0,31.0,8.2,-5.0,94,77,64,0.00,40.00,11,8,26,0.00
2013-12-6,10.0,0.8,-6.0,-2.0,-7.0,-12.0,77,70,57,0.00,40.00,7,4,16,0.00
2013-12-7,6.0,-3.3,-10.0,-6.0,-12.8,-99.9,75,66,51,0.00,40.00,6,4,13,0.00
2013-12-8,9.0,-1.8,-15.0,2.0,-8.6,-22.0,80,72,64,0.00,40.00,4,1,7,0.00
2013-12-9,11.0,2.9,-10.0,4.0,-4.5,-18.0,85,71,57,0.00,40.00,10,4,21,0.00
2013-12-10,9.0,-1.0,-13.0,-3.0,-9.5,-20.0,72,66,56,0.00,40.00,7,4,16,0.00
2013-12-11,3.0,-4.5,-9.0,-10.0,-13.8,-17.0,74,64,46,0.00,40.00,7,4,16,0.00
2013-12-12,11.0,1.2,-11.0,2.0,-7.4,-18.0,79,66,48,0.00,40.00,6,4,13,0.00
2013-12-13,10.0,2.6,-8.0,3.0,-6.0,-14.0,79,68,45,0.00,40.00,8,3,14,0.00
2013-12-14,17.0,8.1,-5.0,8.0,0.6,-99.9,85,74,61,0.00,40.00,4,1,8,0.00
2013-12-15,11.0,2.6,-14.0,7.0,-4.8,-24.0,85,71,56,0.00,40.00,9,4,19,0.00
2013-12-16,12.0,-3.7,-23.0,4.0,-10.7,-31.0,83,71,54,0.00,40.00,6,3,14,0.00
2013-12-17,24.0,15.4,8.0,19.0,11.2,4.0,88,83,74,0.00,40.00,9,5,18,0.00
2013-12-18,24.0,9.6,2.0,8.0,2.1,-3.0,88,72,46,0.00,40.00,5,2,10,0.00
2013-12-19,20.0,13.0,2.0,17.0,8.3,-2.0,90,81,72,0.00,40.00,9,4,20,0.00
2013-12-20,19.0,12.3,0.0,13.0,8.0,-5.0,89,83,76,0.00,40.00,6,2,10,0.00
2013-12-21,24.0,17.6,13.0,18.0,12.6,-99.9,91,84,73,0.00,40.00,5,1,9,0.00
2013-12-22,23.0,19.1,15.0,18.0,15.5,10.0,91,86,76,0.00,40.00,9,4,17,0.00
2013-12-23,15.0,8.5,-4.0,10.0,1.8,-99.9,87,79,67,0.00,40.00,6,3,13,0.00
2013-12-24,18.0,6.2,-7.0,5.0,-1.4,-13.0,80,71,54,0.00,40.00,6,3,16,0.00
2013-12-25,18.0,11.3,7.0,8.0,5.4,1.0,84,77,61,0.00,40.00,6,3,12,0.00
2013-12-26,17.0,8.6,-3.0,7.0,1.4,-8.0,84,73,51,0.00,40.00,5,3,10,0.00
2013-12-27,30.0,19.3,-1.0,26.0,15.6,-6.0,90,85,78,0.00,40.00,9,4,21,0.00
2013-12-28,35.0,29.7,21.0,30.0,25.3,-99.9,96,88,80,0.00,40.00,10,4,18,0.13
2013-12-29,19.0,3.7,-11.0,16.0,-2.8,-18.0,89,74,60,0.00,40.00,10,7,19,0.02
2013-12-30,-1.0,-9.3,-21.0,-14.0,-18.3,-29.0,71,64,50,0.00,40.00,4,1,10,0.00
2013-12-31,-1.0,-9.6,-15.0,-13.0,-18.3,-24.0,72,65,50,0.00,40.00,9,3,17,0.00
2014-1-1,3.0,-8.0,-18.0,-8.0,-16.1,-26.0,74,67,58,0.00,40.00,3,1,7,0.00
2014-1-2,5.0,-9.0,-18.0,-7.0,-17.5,-26.0,74,65,53,0.00,40.00,6,1,11,0.00